Time;durP1;ratioP1;P1;durP2;ratioP2;P2;SDS_P1;SDS_P2;PMS_P1;PMS_P2;Temp;Humidity;BMP_temperature;BMP_pressure;BME280_temperature;BME280_humidity;BME280_pressure;Samples;Min_cycle;Max_cycle;Signal;HPM_P1;HPM_P2
2022/01/01 14:06:27;;;;;;;1.73;1.63;;;18.70;84.40;;;18.73;92.18;100010.56;5127117;27;20544;-44
2022/01/01 14:09:01;;;;;;;2.55;1.67;;;18.70;85.20;;;18.70;91.96;99998.59;5093626;28;20217;-54
2022/01/01 14:11:32;;;;;;;1.88;1.73;;;18.80;85.20;;;18.66;91.29;99992.03;5110119;28;20177;-54
2022/01/01 14:14:12;;;;;;;2.40;1.90;;;18.80;85.00;;;18.73;91.52;100000.91;5110490;28;20184;-48
2022/01/01 14:16:49;;;;;;;2.80;2.13;;;18.80;84.70;;;18.73;91.05;99994.88;5093002;28;20177;-53
2022/01/01 14:19:17;;;;;;;2.72;1.98;;;18.80;84.80;;;18.76;91.26;99986.75;5110400;27;20216;-49
2022/01/01 14:21:44;;;;;;;2.17;1.95;;;18.90;84.70;;;18.67;91.20;99970.16;5092990;28;20181;-57
2022/01/01 14:24:15;;;;;;;2.40;2.20;;;18.90;85.30;;;18.76;90.86;99984.13;5109421;27;20213;-57
2022/01/01 14:26:46;;;;;;;3.00;2.20;;;18.90;84.40;;;18.76;90.67;99984.94;5109372;28;20276;-56
2022/01/01 14:29:16;;;;;;;1.70;1.58;;;18.90;84.20;;;18.68;90.61;99970.97;5092542;28;20665;-52
2022/01/01 14:31:43;;;;;;;1.75;1.63;;;18.90;84.10;;;18.78;91.23;99995.22;5109512;28;20267;-52
2022/01/01 14:34:16;;;;;;;2.05;1.85;;;18.90;84.20;;;18.74;91.26;99983.44;5109183;28;20197;-52
2022/01/01 14:36:54;;;;;;;2.92;1.75;;;18.90;84.30;;;18.75;90.95;99978.06;5076244;28;20248;-54
2022/01/01 14:39:20;;;;;;;1.83;1.67;;;19.00;84.30;;;18.77;90.92;99988.38;5092610;28;20186;-55
2022/01/01 14:41:46;;;;;;;2.08;1.88;;;19.00;84.20;;;18.57;91.14;99953.69;5110127;28;20209;-48
2022/01/01 14:44:14;;;;;;;2.65;1.80;;;19.00;84.20;;;18.77;91.21;99991.00;5110031;28;20248;-54
2022/01/01 14:46:45;;;;;;;1.98;1.88;;;19.00;84.30;;;18.77;91.40;99988.38;5110472;28;20193;-57
2022/01/01 14:49:37;;;;;;;1.98;1.85;;;19.00;84.40;;;18.72;91.24;99991.44;5110166;28;20186;-60
2022/01/01 14:52:13;;;;;;;1.77;1.65;;;19.00;84.30;;;18.67;91.83;99983.22;5092610;28;20174;-55
2022/01/01 14:55:13;;;;;;;3.15;2.10;;;19.00;84.60;;;18.73;91.60;100000.09;5093088;28;20170;-56
2022/01/01 14:57:48;;;;;;;1.88;1.77;;;19.00;84.50;;;18.73;92.41;99997.47;5110797;28;20190;-54
2022/01/01 15:00:16;;;;;;;2.38;1.98;;;19.00;84.50;;;18.71;91.77;99981.94;5109194;28;20165;-53
2022/01/01 15:02:43;;;;;;;2.20;1.90;;;19.00;85.20;;;18.72;92.39;99991.44;5108423;28;20213;-55
2022/01/01 15:05:10;;;;;;;2.28;2.00;;;19.00;84.50;;;18.72;92.48;99994.03;5090940;28;21083;-57
2022/01/01 15:07:39;;;;;;;2.15;1.95;;;19.00;84.60;;;18.68;92.05;99974.41;5108530;28;20197;-56
2022/01/01 15:10:07;;;;;;;2.13;1.92;;;19.00;84.50;;;18.72;92.34;99982.75;5091750;28;20531;-54
2022/01/01 15:12:34;;;;;;;1.55;1.45;;;19.00;84.60;;;18.67;92.44;99964.09;5108597;28;20182;-56
2022/01/01 15:15:00;;;;;;;2.60;1.90;;;19.00;84.70;;;18.70;91.89;99977.69;5091473;28;20174;-53
2022/01/01 15:17:26;;;;;;;1.88;1.77;;;19.00;84.40;;;18.71;92.28;99970.66;5096637;28;20814;-53
2022/01/01 15:19:53;;;;;;;2.72;1.92;;;19.00;84.60;;;18.72;92.26;99965.28;5094695;28;20199;-51
2022/01/01 15:22:37;;;;;;;2.08;1.70;;;19.00;84.60;;;18.71;92.52;99960.19;5094843;28;20190;-53
2022/01/01 15:25:04;;;;;;;1.90;1.73;;;18.90;84.40;;;18.72;92.86;99969.69;5078993;28;20748;-49
2022/01/01 15:27:32;;;;;;;2.03;1.83;;;19.00;84.50;;;18.68;92.35;99958.72;5094401;28;20181;-48
2022/01/01 15:30:14;;;;;;;1.73;1.63;;;19.00;84.50;;;18.70;92.88;99963.78;5077828;28;20243;-48
2022/01/01 15:35:42;;;;;;;1.55;1.45;;;19.00;84.20;;;18.57;92.57;99938.84;5079908;28;20606;-45
2022/01/01 15:41:26;;;;;;;2.10;1.90;;;18.90;84.40;;;18.65;92.88;99950.34;5095604;28;20200;-49
2022/01/01 15:43:32;;;;;;;1.70;1.55;;;19.00;84.50;;;18.57;92.67;99943.25;5091441;28;20660;-51
2022/01/01 15:45:58;;;;;;;1.58;1.48;;;19.00;84.50;;;18.63;92.58;99948.69;5077563;28;20214;-56
2022/01/01 15:48:24;;;;;;;1.67;1.58;;;19.00;84.60;;;18.63;92.69;99951.31;5077330;28;20218;-58
2022/01/01 15:50:51;;;;;;;1.83;1.52;;;18.90;84.40;;;18.63;92.83;99956.53;5095502;28;20236;-52
2022/01/01 15:53:19;;;;;;;1.92;1.77;;;18.90;84.40;;;18.54;92.71;99939.09;5094060;28;20273;-47
2022/01/01 15:56:05;;;;;;;2.00;1.77;;;19.00;84.50;;;18.62;92.93;99961.91;5060682;28;20186;-47
2022/01/01 15:58:40;;;;;;;2.00;1.90;;;18.90;84.50;;;18.62;93.14;99962.72;5094397;28;20177;-49
2022/01/01 16:01:15;;;;;;;2.15;1.90;;;18.90;84.50;;;18.61;93.40;99962.91;5093951;28;20202;-51
2022/01/01 16:04:19;;;;;;;2.40;2.10;;;18.90;84.50;;;18.68;92.65;99961.34;5092797;28;20500;-50
2022/01/01 16:06:45;;;;;;;1.92;1.80;;;19.00;84.50;;;18.65;92.75;99960.81;5094681;28;20198;-56
2022/01/01 16:09:11;;;;;;;1.95;1.80;;;18.90;84.40;;;18.55;93.12;99948.59;5076477;28;20685;-55
2022/01/01 16:11:37;;;;;;;2.22;1.70;;;19.00;84.60;;;18.66;92.89;99965.06;5077059;28;20650;-52
2022/01/01 16:14:03;;;;;;;1.65;1.52;;;18.90;84.60;;;18.64;93.18;99952.13;5076720;28;20201;-52
2022/01/01 16:16:33;;;;;;;2.22;1.88;;;18.90;84.60;;;18.63;93.05;99948.69;5065231;22;20236;-47
2022/01/01 16:19:07;;;;;;;1.60;1.50;;;19.00;84.70;;;18.65;93.20;99960.81;4998013;28;20602;-48
2022/01/01 16:21:34;;;;;;;1.77;1.58;;;19.00;84.70;;;18.65;93.46;99952.97;4998796;28;20196;-55
2022/01/01 16:24:02;;;;;;;1.63;1.52;;;18.90;84.60;;;18.61;93.39;99945.41;5013223;28;20196;-55
2022/01/01 16:26:28;;;;;;;1.70;1.60;;;19.00;84.70;;;18.63;93.12;99953.09;5013597;28;20180;-54
2022/01/01 16:28:54;;;;;;;1.70;1.60;;;19.00;84.60;;;18.63;93.12;99959.16;4996334;28;20199;-56
2022/01/01 16:31:21;;;;;;;1.73;1.60;;;19.00;85.40;;;18.61;93.14;99955.06;4997371;28;20200;-46
2022/01/01 16:33:48;;;;;;;1.83;1.67;;;19.00;84.70;;;18.63;93.20;99953.09;5014676;28;20217;-52
2022/01/01 16:36:23;;;;;;;1.73;1.60;;;18.90;84.60;;;18.63;93.51;99953.09;5013045;28;20596;-51
2022/01/01 16:38:50;;;;;;;1.55;1.45;;;19.00;84.60;;;18.58;92.82;99943.09;5013417;28;20171;-53
2022/01/01 16:41:37;;;;;;;2.83;2.10;;;19.00;84.60;;;18.62;93.05;99952.28;5013058;28;20243;-53
2022/01/01 16:44:22;;;;;;;2.25;1.50;;;19.00;84.60;;;18.63;92.90;99959.16;5014164;28;20199;-52
2022/01/01 16:47:09;;;;;;;1.40;1.30;;;19.00;84.50;;;18.56;92.93;99936.34;4998769;28;20203;-52
2022/01/01 16:49:45;;;;;;;2.30;1.50;;;19.00;84.60;;;18.55;93.23;99943.34;5014461;28;20211;-58
2022/01/01 16:52:26;;;;;;;2.00;1.80;;;19.00;84.60;;;18.62;93.32;99956.69;5013015;28;20200;-56
2022/01/01 16:54:53;;;;;;;1.40;1.30;;;19.00;84.60;;;18.63;92.91;99956.53;4997761;28;20267;-55
2022/01/01 16:57:21;;;;;;;1.60;1.50;;;19.00;85.30;;;18.62;92.79;99954.06;4996909;28;20209;-52
2022/01/01 16:59:59;;;;;;;2.30;1.90;;;19.00;84.60;;;18.62;92.76;99947.06;4997093;28;20193;-51
2022/01/01 17:02:32;;;;;;;1.95;1.35;;;19.00;84.50;;;18.62;92.70;99947.06;4997796;28;20196;-54
2022/01/01 17:05:04;;;;;;;1.67;1.58;;;18.90;84.40;;;18.56;92.86;99928.50;5012695;28;20263;-53
2022/01/01 17:07:35;;;;;;;1.95;1.70;;;19.00;84.50;;;18.61;92.48;99936.78;5012701;28;20232;-59
2022/01/01 17:10:04;;;;;;;2.10;1.67;;;19.00;84.40;;;18.60;92.49;99937.75;4997122;28;20191;-58
2022/01/01 17:12:32;;;;;;;1.92;1.58;;;18.90;84.00;;;18.59;92.88;99936.91;4981129;28;20177;-57
2022/01/01 17:15:00;;;;;;;1.52;1.40;;;18.90;84.30;;;18.62;92.70;99933.97;5012785;28;20188;-51
2022/01/01 17:18:26;;;;;;;1.50;1.40;;;18.90;84.30;;;18.62;92.58;99927.94;5012375;28;20767;-53
2022/01/01 17:20:54;;;;;;;1.38;1.23;;;18.90;84.20;;;18.53;92.09;99911.31;4953341;29;20187;-55
2022/01/01 17:23:45;;;;;;;1.40;1.30;;;19.00;84.30;;;18.61;92.43;99932.34;4937441;29;20190;-56
2022/01/01 17:26:12;;;;;;;1.25;1.17;;;18.90;84.20;;;18.61;92.50;99936.78;4985893;28;20247;-48
2022/01/01 17:28:47;;;;;;;1.40;1.30;;;18.90;84.30;;;18.61;92.26;99942.00;4996329;28;20285;-54
2022/01/01 17:31:15;;;;;;;1.83;1.70;;;18.90;84.20;;;18.55;92.48;99932.09;5012263;28;20391;-54
2022/01/01 17:41:58;;;;;;;1.33;1.23;;;18.90;84.40;;;18.61;92.63;99942.00;5013610;28;20250;-46
2022/01/01 17:44:24;;;;;;;1.63;1.50;;;18.90;84.30;;;18.58;92.43;99937.88;5012198;28;20311;-58
2022/01/01 17:46:51;;;;;;;1.60;1.50;;;18.90;84.30;;;18.50;93.00;99919.47;5011750;28;20193;-50
2022/01/01 17:49:26;;;;;;;1.60;1.48;;;18.90;84.40;;;18.50;92.95;99916.03;5011780;28;20208;-54
2022/01/01 17:51:59;;;;;;;1.23;1.13;;;18.90;84.40;;;18.53;92.84;99919.16;5013325;28;20185;-57
2022/01/01 17:54:25;;;;;;;1.92;1.60;;;18.90;84.30;;;18.59;92.67;99931.69;4997145;28;20185;-55
2022/01/01 17:56:50;;;;;;;1.55;1.20;;;18.90;84.30;;;18.60;92.71;99937.75;5012169;28;20197;-56
2022/01/01 17:59:16;;;;;;;1.60;1.50;;;18.90;84.30;;;18.59;92.68;99941.31;4979327;28;20271;-56
2022/01/01 18:01:43;;;;;;;1.38;1.25;;;18.90;84.30;;;18.52;92.43;99925.38;5012300;28;20598;-54
2022/01/01 18:04:14;;;;;;;1.67;1.48;;;18.90;84.40;;;18.60;92.92;99928.09;4995813;28;20181;-55
2022/01/01 18:06:40;;;;;;;1.55;1.45;;;18.90;84.40;;;18.58;92.55;99924.00;5013242;28;20653;-57
2022/01/01 18:09:06;;;;;;;1.60;1.50;;;18.90;84.30;;;18.58;92.59;99929.22;5011850;28;20217;-54
2022/01/01 18:11:32;;;;;;;2.17;1.35;;;18.90;84.30;;;18.60;92.71;99929.91;5012004;28;20658;-53
2022/01/01 18:14:08;;;;;;;2.78;1.65;;;18.90;84.30;;;18.52;92.49;99917.53;4979514;28;20668;-61
2022/01/01 18:16:36;;;;;;;1.50;1.40;;;18.90;84.30;;;18.56;92.56;99918.06;5011169;28;20224;-57
2022/01/01 18:19:02;;;;;;;1.30;1.20;;;18.90;84.30;;;18.59;92.59;99917.78;4995816;28;20195;-53
2022/01/01 18:21:30;;;;;;;1.60;1.45;;;18.90;84.30;;;18.57;92.57;99909.28;4995753;28;20657;-52
2022/01/01 18:24:22;;;;;;;1.40;1.27;;;18.90;84.30;;;18.60;92.70;99927.28;5013067;28;20200;-57
2022/01/01 18:26:58;;;;;;;1.55;1.45;;;18.90;84.40;;;18.53;92.72;99910.53;5011895;28;20189;-56
2022/01/01 18:29:24;;;;;;;1.55;1.45;;;18.90;84.30;;;18.58;92.90;99922.19;5011810;28;20218;-57
2022/01/01 18:31:53;;;;;;;1.40;1.30;;;18.90;84.40;;;18.58;92.46;99916.16;5028433;28;20196;-56
2022/01/01 18:34:20;;;;;;;1.20;1.10;;;18.90;84.30;;;18.57;92.51;99917.13;4980311;28;20256;-54
2022/01/01 18:36:49;;;;;;;1.30;1.20;;;18.90;84.30;;;18.58;92.49;99921.38;4979809;28;20268;-56
2022/01/01 18:39:15;;;;;;;1.30;1.20;;;18.90;84.20;;;18.59;92.67;99920.41;4979731;28;20642;-55
2022/01/01 18:41:46;;;;;;;1.23;1.13;;;18.90;84.20;;;18.53;92.39;99918.38;4995443;28;20579;-54
2022/01/01 18:44:12;;;;;;;1.15;1.05;;;18.90;84.20;;;18.59;92.30;99926.47;4995705;28;20217;-54
2022/01/01 18:46:38;;;;;;;1.05;0.93;;;18.90;84.20;;;18.60;92.30;99930.72;4994888;28;20643;-52
2022/01/01 18:49:04;;;;;;;1.35;1.25;;;18.90;84.20;;;18.58;92.40;99916.16;5011468;28;20205;-59
2022/01/01 18:51:35;;;;;;;1.50;1.25;;;18.90;84.10;;;18.51;92.24;99908.06;5013849;28;20185;-59
2022/01/01 18:54:11;;;;;;;1.48;1.35;;;18.90;84.10;;;18.57;92.49;99923.16;5031622;28;20252;-57
2022/01/01 18:56:50;;;;;;;1.58;1.48;;;18.90;84.20;;;18.53;92.35;99911.31;4998923;28;20201;-58
2022/01/01 18:59:41;;;;;;;1.50;1.40;;;18.90;84.10;;;18.58;92.42;99919.59;5015510;28;20258;-54
2022/01/01 19:02:07;;;;;;;1.23;1.13;;;18.90;84.10;;;18.57;92.32;99911.88;5011589;28;20197;-51
2022/01/01 19:04:40;;;;;;;1.50;1.40;;;18.90;84.10;;;18.56;92.39;99908.44;5015298;28;20217;-52
2022/01/01 19:07:06;;;;;;;1.48;1.38;;;18.90;84.10;;;18.55;92.18;99908.56;4984063;28;20181;-52
2022/01/01 19:09:39;;;;;;;1.60;1.40;;;18.90;84.10;;;18.57;92.26;99902.25;5016759;28;20196;-58
2022/01/01 19:12:14;;;;;;;1.25;1.15;;;18.90;84.20;;;18.44;92.40;99886.09;4998468;28;20737;-54
2022/01/01 19:14:40;;;;;;;1.42;1.30;;;18.90;84.20;;;18.55;92.42;99898.09;4985165;28;20200;-54
2022/01/01 19:17:06;;;;;;;1.48;1.30;;;18.90;84.10;;;18.53;92.75;99895.63;5014015;28;20309;-54
2022/01/01 19:19:32;;;;;;;1.27;1.17;;;18.80;84.20;;;18.53;92.72;99892.22;4998644;28;20556;-63
2022/01/01 19:21:59;;;;;;;1.50;1.35;;;18.80;84.20;;;18.54;92.39;99892.06;5016089;28;20188;-55
2022/01/01 19:24:25;;;;;;;1.52;1.40;;;18.80;84.10;;;18.53;92.23;99892.22;5014816;28;20213;-56
2022/01/01 19:26:52;;;;;;;1.60;1.50;;;18.80;84.10;;;18.52;91.93;99885.34;5015813;28;20235;-55
2022/01/01 19:29:24;;;;;;;1.30;1.20;;;18.80;84.10;;;18.46;92.00;99878.91;4998214;28;20642;-56
2022/01/01 19:31:52;;;;;;;1.77;1.40;;;18.80;84.10;;;18.54;91.97;99899.91;5014638;28;20193;-54
2022/01/01 19:34:18;;;;;;;1.30;1.20;;;18.80;84.10;;;18.56;91.63;99899.75;5014210;28;20587;-48
2022/01/01 19:36:44;;;;;;;1.60;1.50;;;18.90;84.10;;;18.57;91.43;99894.41;5015729;28;20196;-51
2022/01/01 19:39:10;;;;;;;1.35;1.25;;;18.90;84.00;;;18.56;91.21;99884.06;5014244;28;20239;-47
2022/01/01 19:41:56;;;;;;;1.30;1.20;;;18.90;83.90;;;18.58;92.02;99877.78;5030941;28;20756;-51
2022/01/01 19:44:27;;;;;;;1.45;1.35;;;18.90;84.00;;;18.49;91.65;99862.94;4999593;28;20197;-51
2022/01/01 19:47:04;;;;;;;1.50;1.40;;;18.90;83.90;;;18.43;91.36;99845.25;4998036;28;20197;-53
2022/01/01 19:49:37;;;;;;;1.50;1.40;;;18.90;83.90;;;18.56;91.29;99858.78;5030602;28;20181;-52
2022/01/01 19:52:03;;;;;;;1.40;1.30;;;18.90;83.80;;;18.51;91.53;99844.50;4998767;28;20275;-55
2022/01/01 19:54:29;;;;;;;1.45;1.35;;;18.90;83.80;;;18.51;91.16;99840.09;5013203;28;20197;-56
2022/01/01 19:56:55;;;;;;;1.42;1.33;;;18.90;83.90;;;18.62;91.35;99862.59;5015577;28;20258;-58
2022/01/01 19:59:23;;;;;;;1.23;1.13;;;18.90;83.80;;;18.54;90.70;99846.81;5015080;28;20193;-60
2022/01/01 20:01:49;;;;;;;2.33;1.40;;;18.90;83.80;;;18.59;90.79;99848.06;5015254;28;20185;-58
2022/01/01 20:04:15;;;;;;;1.33;1.23;;;18.90;83.70;;;18.60;91.08;99852.31;5013771;28;20208;-49
2022/01/01 20:06:41;;;;;;;1.52;1.42;;;18.90;83.70;;;18.51;91.22;99839.28;5013890;28;20196;-62
2022/01/01 20:09:07;;;;;;;1.27;1.17;;;18.90;83.60;;;18.59;90.95;99845.44;5015091;28;20279;-56
2022/01/01 20:11:34;;;;;;;1.30;1.20;;;19.00;83.70;;;18.58;91.07;99856.03;5014032;28;20247;-56
2022/01/01 20:14:01;;;;;;;1.48;1.35;;;18.90;83.60;;;18.58;90.88;99850.81;4997744;28;20184;-53
2022/01/01 20:16:29;;;;;;;1.25;1.15;;;18.90;83.60;;;18.59;90.93;99858.50;4997156;28;20256;-56
2022/01/01 20:18:56;;;;;;;1.20;1.10;;;18.90;83.60;;;18.57;90.82;99870.91;5013666;28;20546;-57
2022/01/01 20:21:22;;;;;;;1.17;1.08;;;18.90;83.60;;;18.60;90.79;99870.59;5014628;28;20612;-57
2022/01/01 20:23:48;;;;;;;1.30;1.20;;;18.90;83.60;;;18.60;90.72;99864.56;5013905;28;20196;-59
2022/01/01 20:26:14;;;;;;;1.55;1.40;;;19.00;83.60;;;18.59;90.62;99858.50;5029727;28;20212;-58
2022/01/01 20:28:40;;;;;;;1.50;1.40;;;19.00;83.60;;;18.61;90.54;99853.13;5013545;28;20192;-57
2022/01/01 20:31:07;;;;;;;1.45;1.35;;;19.00;83.60;;;18.61;90.49;99851.31;5029962;28;20200;-57
2022/01/01 20:33:33;;;;;;;1.45;1.25;;;19.00;83.60;;;18.60;90.57;99857.53;5013563;28;20200;-54
2022/01/01 20:35:59;;;;;;;1.20;1.10;;;19.00;83.60;;;18.61;90.53;99856.53;5014314;28;20188;-50
2022/01/01 20:38:25;;;;;;;1.40;1.30;;;18.90;83.40;;;18.62;90.43;99868.63;5013436;28;20189;-47
2022/01/01 20:40:52;;;;;;;1.40;1.30;;;18.90;83.40;;;18.61;90.23;99864.38;5013010;28;20252;-58
